Terminal Aerodrome Forecast
Issued by NWS

Home | Current Version | Previous Version | Text Only | Print | Product List | Glossary On
Versions: 1 2 3 4 5 6 7 8 9 10 11 12 13 14 15 16 17 18 19 20 21 22 23 24
000
FTUS46 KLOX 030500
TAFLGB
TAF
KLGB 030535Z 0306/0406 10008KT P6SM VCSH BKN060
     FM030800 10006KT P6SM SCT060
     FM031400 VRB03KT P6SM SCT100
     FM032100 22008KT P6SM SKC
     FM040000 32008KT P6SM SKC
     FM040500 VRB03KT P6SM SKC=

USA.gov is the U.S. government's official web portal to all federal, state and local government web resources and services.